Time;durP1;ratioP1;P1;durP2;ratioP2;P2;SDS_P1;SDS_P2;PMS_P1;PMS_P2;Temp;Humidity;BMP_temperature;BMP_pressure;BME280_temperature;BME280_humidity;BME280_pressure;Samples;Min_cycle;Max_cycle;Signal;HPM_P1;HPM_P2
2023/04/18 06:21:46;;;;;;;4.83;4.53;;;17.60;99.90;;;;;;4915403;29;20232;-52
2023/04/18 10:52:58;;;;;;;3.37;3.20;;;21.60;96.30;;;;;;4931324;29;20592;-72
2023/04/18 10:55:28;;;;;;;3.30;3.20;;;20.80;99.20;;;;;;4934244;29;20224;-72
2023/04/18 10:57:58;;;;;;;3.30;3.20;;;20.30;98.70;;;;;;4929729;29;20198;-72
2023/04/18 11:00:25;;;;;;;3.00;2.90;;;20.10;99.90;;;;;;4935230;29;20221;-72
2023/04/18 11:02:55;;;;;;;3.00;2.90;;;19.90;98.30;;;;;;4937804;29;20202;-73
2023/04/18 11:05:24;;;;;;;2.43;2.43;;;20.00;99.20;;;;;;4929675;29;20213;-73
2023/04/18 11:07:51;;;;;;;3.30;3.20;;;20.10;98.70;;;;;;4933796;29;20285;-73
2023/04/18 11:10:20;;;;;;;2.67;2.63;;;20.30;99.90;;;;;;4933466;29;20303;-72
2023/04/18 11:12:47;;;;;;;3.47;3.27;;;19.90;99.90;;;;;;4939225;29;20202;-73
2023/04/18 11:15:16;;;;;;;3.53;3.23;;;19.40;99.90;;;;;;4937325;29;20253;-73
2023/04/18 11:17:44;;;;;;;3.70;3.60;;;18.70;99.90;;;;;;4938697;29;20678;-73
2023/04/18 11:20:14;;;;;;;3.60;3.40;;;18.00;99.90;;;;;;4937375;29;20308;-72
2023/04/18 11:22:45;;;;;;;4.37;4.17;;;17.50;99.90;;;;;;4945628;29;20198;-73
2023/04/18 11:25:12;;;;;;;4.27;4.07;;;17.30;99.90;;;;;;4936084;29;20687;-72
2023/04/18 11:27:43;;;;;;;3.43;3.33;;;17.50;99.90;;;;;;4938917;29;20218;-73
2023/04/18 11:30:11;;;;;;;3.60;3.50;;;17.60;99.90;;;;;;4937859;29;20723;-72
2023/04/18 11:32:39;;;;;;;3.80;3.60;;;17.70;99.90;;;;;;4941318;29;20247;-72
2023/04/18 11:35:08;;;;;;;3.77;3.57;;;17.90;99.90;;;;;;4937536;29;20667;-70
2023/04/18 11:37:36;;;;;;;3.87;3.67;;;17.80;99.90;;;;;;4936682;29;20197;-72
2023/04/18 11:40:05;;;;;;;4.00;3.80;;;17.90;99.90;;;;;;4932560;29;20343;-76
2023/04/18 11:42:33;;;;;;;3.70;3.60;;;17.70;99.90;;;;;;4937151;29;20568;-73
2023/04/18 11:45:02;;;;;;;4.07;3.87;;;17.60;99.90;;;;;;4938622;29;20459;-73
2023/04/18 11:47:31;;;;;;;4.40;4.10;;;17.60;99.90;;;;;;4938577;29;20228;-73
2023/04/18 11:50:00;;;;;;;3.87;3.60;;;17.70;99.90;;;;;;4937751;29;20296;-73
2023/04/18 11:52:28;;;;;;;3.40;3.30;;;17.80;99.90;;;;;;4948247;29;20273;-73
2023/04/18 11:54:56;;;;;;;3.30;3.20;;;17.50;99.90;;;;;;4944288;29;20214;-73
2023/04/18 11:57:25;;;;;;;3.47;3.27;;;17.60;99.90;;;;;;4937785;29;20269;-75
2023/04/18 11:59:54;;;;;;;3.50;3.40;;;17.80;99.90;;;;;;4932096;29;20226;-73
2023/04/18 12:02:24;;;;;;;4.33;4.03;;;17.70;99.90;;;;;;4934649;29;20218;-73
2023/04/18 12:04:56;;;;;;;3.23;3.13;;;17.60;99.90;;;;;;4934346;29;20213;-73
2023/04/18 12:07:32;;;;;;;3.97;3.77;;;17.60;99.90;;;;;;4932887;29;20301;-73
2023/04/18 12:09:58;;;;;;;3.67;3.47;;;17.50;99.90;;;;;;4934778;29;20229;-73
2023/04/18 12:12:25;;;;;;;3.67;3.47;;;17.70;99.90;;;;;;4936755;29;20671;-73
2023/04/18 12:15:02;;;;;;;4.43;4.13;;;17.70;99.90;;;;;;4932059;29;20265;-73
2023/04/18 12:17:31;;;;;;;4.30;3.70;;;17.80;99.90;;;;;;4936734;29;20202;-73
2023/04/18 12:20:02;;;;;;;3.33;3.23;;;17.70;99.90;;;;;;4936960;29;20363;-73
2023/04/18 12:22:41;;;;;;;3.63;3.43;;;17.80;99.90;;;;;;4934749;29;20303;-73
2023/04/18 12:25:18;;;;;;;4.13;3.83;;;17.70;99.90;;;;;;4935895;29;20297;-73
2023/04/18 12:27:56;;;;;;;3.00;2.80;;;17.40;99.90;;;;;;4936998;29;20232;-73
2023/04/18 12:30:25;;;;;;;3.67;3.37;;;17.60;99.90;;;;;;4929239;29;20229;-73
2023/04/18 12:32:55;;;;;;;2.93;2.83;;;17.70;99.90;;;;;;4931685;29;20261;-73
2023/04/18 12:35:22;;;;;;;3.43;3.33;;;17.70;99.90;;;;;;4921905;29;20264;-73
2023/04/18 12:37:51;;;;;;;3.13;3.00;;;17.40;99.90;;;;;;4932004;29;20615;-73
2023/04/18 12:40:18;;;;;;;2.90;2.80;;;17.60;99.90;;;;;;4936742;29;20290;-73
2023/04/18 12:42:47;;;;;;;2.93;2.83;;;17.60;99.90;;;;;;4935331;29;20202;-73
2023/04/18 12:45:15;;;;;;;2.93;2.80;;;17.70;99.90;;;;;;4936096;29;20212;-73
2023/04/18 12:47:43;;;;;;;2.90;2.70;;;17.40;99.90;;;;;;4936398;29;20238;-73
2023/04/18 12:50:15;;;;;;;3.57;2.90;;;17.30;99.90;;;;;;4936787;29;20673;-73
2023/04/18 12:52:42;;;;;;;2.80;2.67;;;17.10;99.90;;;;;;4935911;29;20210;-73
2023/04/18 12:55:10;;;;;;;3.20;3.00;;;17.20;99.90;;;;;;4931316;29;20213;-73
2023/04/18 12:57:36;;;;;;;3.90;3.80;;;17.40;99.90;;;;;;4936947;29;20208;-74
2023/04/18 13:00:08;;;;;;;3.10;3.00;;;17.50;99.90;;;;;;4931775;29;20233;-73
2023/04/18 13:02:36;;;;;;;2.90;2.80;;;17.30;99.90;;;;;;4942240;29;20205;-72
2023/04/18 13:05:03;;;;;;;3.57;3.37;;;16.90;99.90;;;;;;4944210;29;20236;-73
2023/04/18 13:07:32;;;;;;;2.23;2.13;;;17.10;99.90;;;;;;4949525;29;20245;-73
2023/04/18 13:09:58;;;;;;;2.90;2.80;;;17.30;99.90;;;;;;4935945;29;20225;-73
2023/04/18 13:12:25;;;;;;;2.70;2.60;;;17.60;99.90;;;;;;4929577;29;20206;-73
2023/04/18 13:14:53;;;;;;;2.80;2.70;;;17.80;99.90;;;;;;4935776;29;20248;-73
2023/04/18 13:17:20;;;;;;;3.17;3.07;;;17.80;99.90;;;;;;4954005;29;20201;-73
2023/04/18 13:19:46;;;;;;;3.00;2.80;;;17.90;99.90;;;;;;4943272;29;20225;-75
2023/04/18 13:28:12;;;;;;;3.00;2.80;;;18.00;99.90;;;;;;4973856;28;20235;-64
2023/04/18 13:30:39;;;;;;;3.47;3.33;;;17.70;99.90;;;;;;4976409;28;20558;-66
2023/04/18 13:33:06;;;;;;;3.60;3.40;;;17.70;99.90;;;;;;4989995;28;20746;-62
2023/04/18 13:35:33;;;;;;;3.33;3.10;;;17.70;99.90;;;;;;4989547;28;20644;-61
2023/04/18 13:38:00;;;;;;;3.87;3.70;;;17.80;99.90;;;;;;4989685;28;20204;-66
2023/04/18 13:40:27;;;;;;;3.30;3.13;;;17.80;99.90;;;;;;4989573;28;20242;-66
2023/04/18 13:42:54;;;;;;;3.50;3.30;;;17.80;99.90;;;;;;4980124;28;20236;-66
2023/04/18 13:45:23;;;;;;;3.40;3.30;;;17.60;99.90;;;;;;4971078;28;20807;-66
2023/04/18 13:47:49;;;;;;;2.97;2.87;;;17.60;99.90;;;;;;4971505;28;20274;-66
2023/04/18 13:50:16;;;;;;;2.63;2.53;;;17.80;99.90;;;;;;4971133;28;20649;-65
2023/04/18 13:52:43;;;;;;;3.10;2.90;;;17.80;99.90;;;;;;4971359;28;20193;-66
2023/04/18 13:55:11;;;;;;;3.10;2.90;;;17.80;99.90;;;;;;4971340;28;20220;-66
2023/04/18 13:57:38;;;;;;;2.93;2.73;;;17.70;99.90;;;;;;4970990;28;20670;-68
2023/04/18 14:00:07;;;;;;;3.60;3.40;;;17.80;99.90;;;;;;4971414;28;20200;-67
2023/04/18 14:02:36;;;;;;;3.10;3.00;;;17.90;99.90;;;;;;4971178;28;20208;-68
2023/04/18 14:05:03;;;;;;;3.50;3.20;;;18.00;99.90;;;;;;4970963;28;20231;-65
2023/04/18 14:07:30;;;;;;;3.47;3.37;;;17.90;99.90;;;;;;4971525;28;20228;-67
2023/04/18 14:09:57;;;;;;;4.03;3.73;;;17.90;99.90;;;;;;4971249;28;20227;-65
2023/04/18 14:12:24;;;;;;;3.73;3.53;;;17.90;99.90;;;;;;4971065;28;20263;-62
2023/04/18 14:14:52;;;;;;;3.37;3.27;;;17.90;99.90;;;;;;4970404;28;20224;-61
2023/04/18 14:17:20;;;;;;;3.93;3.73;;;17.90;99.90;;;;;;4975085;28;20196;-62
2023/04/18 14:19:50;;;;;;;4.03;3.83;;;17.70;99.90;;;;;;4973246;28;20201;-62
2023/04/18 14:22:17;;;;;;;4.13;3.93;;;17.70;99.90;;;;;;4979134;28;20239;-62
2023/04/18 14:24:45;;;;;;;4.63;4.43;;;17.60;99.90;;;;;;4967931;28;20609;-62
2023/04/18 14:27:12;;;;;;;4.33;4.03;;;17.60;99.90;;;;;;4977131;28;20618;-62
2023/04/18 14:29:39;;;;;;;3.90;3.70;;;17.30;99.90;;;;;;4968356;28;20200;-62
2023/04/18 14:32:06;;;;;;;4.03;3.83;;;17.30;99.90;;;;;;4971306;28;20197;-62
2023/04/18 14:34:33;;;;;;;4.17;3.90;;;17.30;99.90;;;;;;4970709;28;20217;-61
2023/04/18 14:37:02;;;;;;;6.93;4.50;;;17.50;99.90;;;;;;4970929;28;20196;-62
2023/04/18 14:39:29;;;;;;;5.13;4.73;;;17.60;99.90;;;;;;4971106;28;20197;-62
2023/04/18 14:41:56;;;;;;;4.80;4.40;;;17.50;99.90;;;;;;4974259;28;20203;-62
2023/04/18 14:44:23;;;;;;;4.40;4.13;;;17.40;99.90;;;;;;4985335;28;20239;-62
2023/04/18 14:46:50;;;;;;;4.43;4.20;;;17.50;99.90;;;;;;4976089;28;20658;-62
2023/04/18 14:49:17;;;;;;;4.50;4.00;;;17.40;99.90;;;;;;4976038;28;20266;-62
2023/04/18 14:51:44;;;;;;;4.07;3.83;;;17.20;99.90;;;;;;4977048;28;20275;-62
2023/04/18 14:54:13;;;;;;;3.87;3.67;;;17.20;99.90;;;;;;4974295;28;20279;-62
2023/04/18 14:56:39;;;;;;;5.00;4.60;;;17.10;99.90;;;;;;4979698;28;20196;-62
2023/04/18 14:59:07;;;;;;;4.70;4.30;;;16.80;99.90;;;;;;4975687;28;20577;-62
2023/04/18 15:01:34;;;;;;;4.37;4.10;;;16.70;99.90;;;;;;4970725;28;20621;-62
2023/04/18 15:04:03;;;;;;;5.37;5.03;;;16.60;99.90;;;;;;4975128;28;20231;-62
2023/04/18 15:06:29;;;;;;;5.90;5.40;;;16.70;99.90;;;;;;4987972;28;20219;-62
2023/04/18 15:08:56;;;;;;;4.37;4.17;;;16.80;99.90;;;;;;4984107;28;20248;-61
2023/04/18 15:11:26;;;;;;;3.87;3.57;;;16.90;99.90;;;;;;4980653;28;20208;-61
2023/04/18 15:13:53;;;;;;;4.07;3.77;;;17.10;99.90;;;;;;4992182;28;20224;-63
2023/04/18 15:16:19;;;;;;;5.27;3.87;;;17.30;99.90;;;;;;4992569;28;20251;-63
2023/04/18 15:18:46;;;;;;;4.23;4.03;;;17.30;99.90;;;;;;4984666;28;20565;-63
2023/04/18 15:21:13;;;;;;;3.17;3.07;;;17.40;99.90;;;;;;4974154;28;20201;-61
2023/04/18 15:23:40;;;;;;;4.10;3.87;;;17.50;99.90;;;;;;4973364;28;20196;-62
2023/04/18 15:26:07;;;;;;;3.40;3.10;;;17.60;99.90;;;;;;4974188;28;20208;-62
2023/04/18 15:28:36;;;;;;;3.73;3.53;;;17.80;99.90;;;;;;4973552;28;20682;-62
2023/04/18 15:31:02;;;;;;;4.27;3.83;;;17.90;99.90;;;;;;4970057;28;20251;-62
2023/04/18 15:33:29;;;;;;;3.97;3.60;;;18.00;99.90;;;;;;4973640;28;20200;-62
2023/04/18 15:35:56;;;;;;;4.10;3.77;;;18.10;99.90;;;;;;4971223;28;20196;-62
2023/04/18 15:38:23;;;;;;;6.33;5.40;;;18.20;99.90;;;;;;4973368;28;21111;-61
2023/04/18 15:40:50;;;;;;;3.90;3.60;;;18.30;99.90;;;;;;4969669;28;20205;-62
2023/04/18 15:43:17;;;;;;;3.07;2.97;;;18.10;99.90;;;;;;4973413;28;20212;-62
2023/04/18 15:45:45;;;;;;;2.97;2.87;;;18.10;99.90;;;;;;4972985;28;20275;-63
2023/04/18 15:48:12;;;;;;;3.40;3.30;;;18.00;99.90;;;;;;4984706;28;20278;-62
2023/04/18 15:50:40;;;;;;;3.47;3.27;;;17.70;99.90;;;;;;4969010;28;20204;-62
2023/04/18 15:53:07;;;;;;;4.00;3.80;;;17.50;99.90;;;;;;4970528;28;20591;-62
2023/04/18 15:55:34;;;;;;;3.80;3.60;;;17.40;99.90;;;;;;4972617;28;20276;-62
2023/04/18 15:58:01;;;;;;;3.77;3.67;;;17.40;99.90;;;;;;4972840;28;20610;-62
2023/04/18 16:00:28;;;;;;;3.83;3.63;;;17.50;99.90;;;;;;4972448;28;20243;-62
2023/04/18 16:02:56;;;;;;;3.00;2.90;;;17.50;99.90;;;;;;4977201;28;20207;-62
2023/04/18 16:05:24;;;;;;;2.87;2.73;;;17.30;99.90;;;;;;4973786;28;20224;-62
2023/04/18 16:07:52;;;;;;;3.13;3.03;;;17.20;99.90;;;;;;4972700;28;20685;-62
2023/04/18 16:10:19;;;;;;;2.57;2.47;;;17.00;99.90;;;;;;4966173;28;20212;-62
2023/04/18 16:12:47;;;;;;;3.90;3.70;;;16.90;99.90;;;;;;4972929;28;20248;-62
2023/04/18 16:15:14;;;;;;;3.93;3.73;;;16.80;99.90;;;;;;4972383;28;20283;-62
2023/04/18 16:17:50;;;;;;;3.30;3.00;;;16.70;99.90;;;;;;4972396;28;20204;-62
2023/04/18 16:20:19;;;;;;;3.37;3.20;;;16.80;99.90;;;;;;4972265;28;20212;-62
2023/04/18 16:22:46;;;;;;;3.30;3.10;;;16.60;99.90;;;;;;4976022;28;20461;-61
2023/04/18 16:25:14;;;;;;;3.30;3.20;;;16.70;99.90;;;;;;4975204;28;20232;-64
2023/04/18 16:27:41;;;;;;;3.33;3.20;;;16.60;99.90;;;;;;4972368;28;20222;-65
2023/04/18 16:30:09;;;;;;;2.93;2.73;;;16.60;99.90;;;;;;4972272;28;20211;-62
2023/04/18 16:32:38;;;;;;;3.10;2.90;;;16.60;99.90;;;;;;4972471;28;20196;-62
2023/04/18 16:35:06;;;;;;;4.03;3.73;;;16.70;99.90;;;;;;4989858;28;20251;-61
2023/04/18 16:37:35;;;;;;;4.27;3.93;;;16.70;99.90;;;;;;4977370;28;20203;-60
2023/04/18 16:40:04;;;;;;;3.70;3.50;;;16.60;99.90;;;;;;4993793;23;20224;-57
2023/04/18 16:42:31;;;;;;;8.83;7.10;;;16.40;99.90;;;;;;4981879;28;20196;-57
2023/04/18 16:44:58;;;;;;;6.63;5.27;;;16.40;99.90;;;;;;4989522;28;20201;-57
2023/04/18 16:47:25;;;;;;;7.10;5.90;;;16.40;99.90;;;;;;4974621;28;20201;-57
2023/04/18 16:49:51;;;;;;;4.07;3.80;;;16.30;99.90;;;;;;4967713;28;20742;-57
2023/04/18 16:52:18;;;;;;;29.07;15.60;;;16.40;99.90;;;;;;4942658;28;20206;-56
2023/04/18 16:54:47;;;;;;;7.50;5.43;;;16.20;99.90;;;;;;4955627;28;20200;-56
2023/04/18 16:57:14;;;;;;;4.20;3.87;;;16.10;99.90;;;;;;4960887;28;20252;-57
2023/04/18 16:59:41;;;;;;;3.50;3.20;;;16.00;99.90;;;;;;4963512;28;20619;-56
2023/04/18 17:02:08;;;;;;;3.27;3.10;;;16.00;99.90;;;;;;4971621;28;20200;-57
2023/04/18 17:04:35;;;;;;;3.23;3.03;;;15.90;99.90;;;;;;4968156;28;20237;-57
2023/04/18 17:07:02;;;;;;;3.50;3.40;;;15.80;99.90;;;;;;4960899;28;20207;-57
2023/04/18 17:09:30;;;;;;;2.77;2.67;;;15.80;99.90;;;;;;4950748;28;20267;-57
2023/04/18 17:11:58;;;;;;;3.10;3.00;;;15.60;99.90;;;;;;4949567;28;20218;-56
2023/04/18 17:14:25;;;;;;;3.00;2.87;;;15.60;99.90;;;;;;4972569;28;20204;-57
2023/04/18 17:16:52;;;;;;;2.80;2.70;;;15.50;99.90;;;;;;4964097;28;20201;-57
2023/04/18 17:19:20;;;;;;;3.20;3.10;;;15.50;99.90;;;;;;4954941;28;20256;-56
2023/04/18 17:21:47;;;;;;;3.23;3.13;;;15.50;99.90;;;;;;4969677;28;20204;-56
2023/04/18 17:24:17;;;;;;;3.27;3.00;;;15.40;99.90;;;;;;4970630;28;20240;-56
2023/04/18 17:26:44;;;;;;;3.63;3.43;;;15.30;99.90;;;;;;4954313;28;20678;-56
2023/04/18 17:29:12;;;;;;;3.33;3.13;;;15.20;99.90;;;;;;4936566;29;20296;-57
2023/04/18 17:31:39;;;;;;;2.73;2.63;;;15.00;99.90;;;;;;4934931;29;20202;-56
2023/04/18 17:34:06;;;;;;;3.30;3.20;;;15.10;99.90;;;;;;4934482;29;20206;-56
2023/04/18 17:36:33;;;;;;;3.70;3.50;;;14.90;99.90;;;;;;4968036;28;20629;-56
2023/04/18 17:39:05;;;;;;;2.70;2.60;;;14.90;99.90;;;;;;4973245;28;20788;-56
2023/04/18 17:41:35;;;;;;;2.20;2.10;;;14.80;99.90;;;;;;4973744;28;20211;-56
2023/04/18 17:44:02;;;;;;;3.40;3.13;;;14.70;99.90;;;;;;4972012;28;20207;-56
2023/04/18 17:46:31;;;;;;;3.43;3.20;;;14.70;99.90;;;;;;4935056;29;20239;-56
2023/04/18 17:48:58;;;;;;;3.83;3.63;;;14.60;99.90;;;;;;4934730;29;20248;-56
2023/04/18 17:51:26;;;;;;;7.37;5.37;;;14.40;99.90;;;;;;4962740;28;20744;-56
2023/04/18 17:53:53;;;;;;;3.63;3.33;;;14.30;99.90;;;;;;4973588;28;20218;-57
2023/04/18 17:56:21;;;;;;;3.10;2.97;;;14.20;99.90;;;;;;4958956;28;20208;-56
2023/04/18 17:58:48;;;;;;;3.90;3.60;;;14.00;99.90;;;;;;4954278;29;20778;-56
2023/04/18 18:01:15;;;;;;;2.87;2.67;;;13.90;99.90;;;;;;4952146;29;20606;-57
2023/04/18 18:03:44;;;;;;;2.20;2.03;;;13.80;99.90;;;;;;4944956;28;20211;-57
2023/04/18 18:06:12;;;;;;;3.30;3.10;;;13.80;99.90;;;;;;4965291;28;20669;-56
2023/04/18 18:08:39;;;;;;;2.70;2.60;;;13.80;99.90;;;;;;4973263;28;20238;-56
2023/04/18 18:11:06;;;;;;;2.33;2.23;;;13.90;99.90;;;;;;4973655;28;20212;-57
2023/04/18 18:13:33;;;;;;;2.20;2.10;;;13.80;99.90;;;;;;4965729;28;20614;-56
2023/04/18 18:16:01;;;;;;;2.73;2.53;;;13.70;99.90;;;;;;4954073;28;20622;-56
2023/04/18 18:18:31;;;;;;;2.50;2.37;;;13.70;99.90;;;;;;4954005;28;20193;-56
2023/04/18 18:20:59;;;;;;;2.57;2.37;;;13.60;99.90;;;;;;4954246;28;20741;-56
2023/04/18 18:23:26;;;;;;;2.50;2.40;;;13.70;99.90;;;;;;4967483;28;20200;-57
2023/04/18 18:25:53;;;;;;;3.50;3.30;;;13.60;99.90;;;;;;4970786;28;20208;-57
2023/04/18 18:28:20;;;;;;;2.60;2.47;;;13.60;99.90;;;;;;4954514;28;20220;-56
2023/04/18 18:30:47;;;;;;;2.67;2.57;;;13.50;99.90;;;;;;4959857;28;20225;-56
2023/04/18 18:33:14;;;;;;;2.83;2.37;;;13.40;99.90;;;;;;4949319;28;20614;-57
2023/04/18 18:35:41;;;;;;;3.03;2.83;;;13.20;99.90;;;;;;4955116;28;20253;-56
2023/04/18 18:38:09;;;;;;;2.47;2.37;;;13.30;99.90;;;;;;4934905;29;20747;-56
2023/04/18 18:40:36;;;;;;;4.37;4.07;;;13.30;99.90;;;;;;4934625;29;20237;-56
2023/04/18 18:43:03;;;;;;;3.77;3.30;;;13.20;99.90;;;;;;4935222;28;20201;-56
2023/04/18 18:45:30;;;;;;;2.90;2.70;;;13.10;99.90;;;;;;4960185;28;20201;-56
2023/04/18 18:47:57;;;;;;;3.60;3.40;;;13.00;99.90;;;;;;4976869;28;20203;-56
2023/04/18 18:50:23;;;;;;;3.57;3.37;;;12.80;99.90;;;;;;4976801;28;20770;-56
2023/04/18 18:52:50;;;;;;;3.50;3.30;;;12.80;99.90;;;;;;4962091;28;20216;-56
2023/04/18 18:55:19;;;;;;;4.13;3.47;;;12.70;99.90;;;;;;4938262;29;20209;-56
2023/04/18 18:57:46;;;;;;;3.67;3.37;;;12.60;99.90;;;;;;4943952;28;20268;-57
2023/04/18 19:00:13;;;;;;;5.30;2.70;;;12.60;99.90;;;;;;4947936;28;20253;-57
2023/04/18 19:02:40;;;;;;;3.27;3.07;;;12.60;99.90;;;;;;4953394;28;20206;-56
2023/04/18 19:05:08;;;;;;;3.53;3.30;;;12.60;99.90;;;;;;4962156;28;20204;-57
2023/04/18 19:07:35;;;;;;;3.73;3.43;;;12.40;99.90;;;;;;4938264;29;20202;-56
2023/04/18 19:10:03;;;;;;;6.90;3.53;;;12.40;99.90;;;;;;4949376;29;20715;-57
2023/04/18 19:12:31;;;;;;;8.37;4.10;;;12.30;99.90;;;;;;4948983;28;20237;-59
2023/04/18 19:14:58;;;;;;;4.00;3.50;;;12.20;99.90;;;;;;4968728;28;20199;-56
2023/04/18 19:17:25;;;;;;;5.90;4.27;;;12.10;99.90;;;;;;4976129;28;20817;-57
2023/04/18 19:19:56;;;;;;;4.97;4.57;;;12.10;99.90;;;;;;4975799;28;20283;-58
2023/04/18 19:22:23;;;;;;;7.43;4.30;;;12.00;99.90;;;;;;4965094;28;20307;-58
2023/04/18 19:24:50;;;;;;;4.47;3.97;;;11.90;99.90;;;;;;4952110;28;20244;-58
2023/04/18 19:27:18;;;;;;;4.23;3.93;;;11.90;99.90;;;;;;4949214;28;20214;-58
2023/04/18 19:29:46;;;;;;;5.07;4.67;;;11.90;99.90;;;;;;4966948;28;20224;-56
2023/04/18 19:32:13;;;;;;;3.93;3.63;;;11.90;99.90;;;;;;4955955;29;20264;-56
2023/04/18 19:34:40;;;;;;;4.03;3.73;;;11.80;99.90;;;;;;4953054;28;20559;-58
2023/04/18 19:37:07;;;;;;;4.80;4.50;;;11.70;99.90;;;;;;4944772;28;20263;-58
2023/04/18 19:39:34;;;;;;;6.20;4.83;;;11.50;99.90;;;;;;4949380;28;20222;-56
2023/04/18 19:42:02;;;;;;;5.70;4.67;;;11.50;99.90;;;;;;4967422;28;20207;-57
2023/04/18 19:44:30;;;;;;;5.87;4.43;;;11.60;99.90;;;;;;4949038;28;20205;-58
2023/04/18 19:46:58;;;;;;;6.70;4.30;;;11.60;99.90;;;;;;4955140;28;20305;-57
2023/04/18 19:49:25;;;;;;;5.10;4.50;;;11.60;99.90;;;;;;4957997;28;20221;-57
2023/04/18 19:51:52;;;;;;;4.97;4.50;;;11.60;99.90;;;;;;4949737;28;20207;-57
2023/04/18 19:54:20;;;;;;;4.97;4.33;;;11.60;99.90;;;;;;4961054;28;20208;-57
2023/04/18 19:56:47;;;;;;;5.43;4.20;;;11.50;99.90;;;;;;4948130;28;20242;-58
2023/04/18 19:59:14;;;;;;;4.53;4.13;;;11.50;99.90;;;;;;4951095;28;20315;-58
2023/04/18 20:01:41;;;;;;;3.87;3.43;;;11.50;99.90;;;;;;4958232;28;20206;-58
2023/04/18 20:04:09;;;;;;;6.50;4.27;;;11.50;99.90;;;;;;4954896;28;20202;-59
2023/04/18 20:06:36;;;;;;;4.70;4.30;;;11.50;99.90;;;;;;4953103;28;20857;-58
2023/04/18 20:09:04;;;;;;;5.07;4.57;;;11.50;99.90;;;;;;4950176;28;20247;-59
2023/04/18 20:11:31;;;;;;;4.33;4.07;;;11.60;99.90;;;;;;4963242;28;20214;-58
2023/04/18 20:13:58;;;;;;;5.47;4.27;;;11.70;99.90;;;;;;4954299;29;20200;-57
2023/04/18 20:16:25;;;;;;;4.50;3.33;;;11.70;99.90;;;;;;4945162;28;20275;-58
2023/04/18 20:18:52;;;;;;;4.23;3.93;;;11.70;99.90;;;;;;4958640;28;20228;-58
2023/04/18 20:21:20;;;;;;;4.50;4.10;;;11.70;99.90;;;;;;4957751;28;20231;-58
2023/04/18 20:23:47;;;;;;;3.50;3.20;;;11.60;99.90;;;;;;4950084;28;20624;-58
2023/04/18 20:26:14;;;;;;;4.77;4.03;;;11.60;99.90;;;;;;4951660;28;20276;-58
2023/04/18 20:28:41;;;;;;;3.63;3.27;;;11.70;99.90;;;;;;4958867;28;20199;-58
2023/04/18 20:31:08;;;;;;;4.00;3.70;;;11.70;99.90;;;;;;4969175;28;20256;-58
2023/04/18 20:33:36;;;;;;;4.43;4.07;;;11.70;99.90;;;;;;4954803;29;20565;-57
2023/04/18 20:36:04;;;;;;;4.60;4.13;;;11.70;99.90;;;;;;4951647;28;20205;-59
2023/04/18 20:38:32;;;;;;;4.83;4.37;;;11.70;99.90;;;;;;4949904;28;20203;-57
2023/04/18 20:40:59;;;;;;;4.40;4.00;;;11.70;99.90;;;;;;4949040;28;20373;-58
2023/04/18 20:43:28;;;;;;;4.93;4.23;;;11.60;99.90;;;;;;4958193;28;20207;-58
2023/04/18 20:45:57;;;;;;;5.10;4.60;;;11.50;99.90;;;;;;4958468;28;20266;-58
2023/04/18 20:48:27;;;;;;;4.97;4.53;;;11.50;99.90;;;;;;4951017;28;20201;-57
2023/04/18 20:50:54;;;;;;;6.53;4.27;;;11.40;99.90;;;;;;4968442;28;20278;-58
2023/04/18 20:53:24;;;;;;;3.80;3.37;;;11.40;99.90;;;;;;4973942;28;20207;-57
2023/04/18 20:55:53;;;;;;;5.07;4.50;;;11.40;99.90;;;;;;4971427;28;20211;-58
2023/04/18 20:58:20;;;;;;;4.77;4.33;;;11.30;99.90;;;;;;4947909;28;20565;-58
2023/04/18 21:00:47;;;;;;;4.87;4.37;;;11.30;99.90;;;;;;4954493;28;20227;-58
2023/04/18 21:03:14;;;;;;;4.60;4.20;;;11.30;99.90;;;;;;4959277;28;20220;-58
2023/04/18 21:05:42;;;;;;;5.27;4.73;;;11.30;99.90;;;;;;4955060;28;20221;-57
2023/04/18 21:08:10;;;;;;;4.43;4.03;;;11.20;99.90;;;;;;4957530;28;20211;-58
2023/04/18 21:10:37;;;;;;;5.53;4.97;;;11.20;99.90;;;;;;4957612;28;20226;-57
2023/04/18 21:13:05;;;;;;;5.43;4.93;;;11.20;99.90;;;;;;4973543;28;20207;-57
2023/04/18 21:15:32;;;;;;;4.87;4.47;;;11.10;99.90;;;;;;4973184;28;20275;-58
2023/04/18 21:17:59;;;;;;;7.47;4.83;;;11.20;99.90;;;;;;4953624;28;20199;-57
2023/04/18 21:20:26;;;;;;;6.83;4.80;;;11.10;99.90;;;;;;4944128;28;20283;-59
2023/04/18 21:22:53;;;;;;;5.30;4.37;;;11.10;99.90;;;;;;4956693;28;20199;-57
2023/04/18 21:25:20;;;;;;;5.63;4.17;;;11.10;99.90;;;;;;4953783;29;20205;-57
2023/04/18 21:27:49;;;;;;;6.27;4.80;;;11.10;99.90;;;;;;4952712;28;20205;-56
2023/04/18 21:30:17;;;;;;;5.20;4.70;;;11.00;99.90;;;;;;4962276;28;20708;-56
2023/04/18 21:32:45;;;;;;;7.53;4.97;;;11.00;99.90;;;;;;4963841;28;20238;-57
2023/04/18 21:35:13;;;;;;;5.70;5.20;;;11.00;99.90;;;;;;4953873;29;20286;-58
2023/04/18 21:37:40;;;;;;;5.30;4.80;;;11.00;99.90;;;;;;4954119;28;20200;-56
2023/04/18 21:40:08;;;;;;;4.73;4.37;;;11.00;99.90;;;;;;4961261;28;20266;-58
2023/04/18 21:42:35;;;;;;;5.77;4.67;;;11.00;99.90;;;;;;4972955;28;20672;-58
2023/04/18 21:45:02;;;;;;;5.30;4.40;;;11.00;99.90;;;;;;4962210;28;20239;-57
2023/04/18 21:47:32;;;;;;;5.33;4.67;;;10.80;99.90;;;;;;4955798;28;20208;-57
2023/04/18 21:49:59;;;;;;;4.70;4.23;;;10.70;99.90;;;;;;4947071;28;20219;-58
2023/04/18 21:52:26;;;;;;;5.43;4.93;;;10.70;99.90;;;;;;4943950;28;20810;-57
2023/04/18 21:54:53;;;;;;;5.50;4.87;;;10.70;99.90;;;;;;4962958;28;20656;-57
2023/04/18 21:57:21;;;;;;;5.10;4.60;;;10.70;99.90;;;;;;4961162;28;20231;-59
2023/04/18 21:59:48;;;;;;;5.00;4.57;;;10.70;99.90;;;;;;4937350;28;20719;-56
2023/04/18 22:02:15;;;;;;;7.97;6.30;;;10.70;99.90;;;;;;4943860;28;20206;-56
2023/04/18 22:04:44;;;;;;;6.30;5.70;;;10.70;99.90;;;;;;4948526;28;20231;-57
2023/04/18 22:07:12;;;;;;;5.67;4.90;;;10.60;99.90;;;;;;4950008;28;20290;-56
2023/04/18 22:09:39;;;;;;;6.27;5.23;;;10.50;99.90;;;;;;4947607;28;20316;-56
2023/04/18 22:12:07;;;;;;;6.47;5.47;;;10.50;99.90;;;;;;4957371;28;20702;-56
2023/04/18 22:14:35;;;;;;;8.03;4.93;;;10.50;99.90;;;;;;4953149;29;20217;-57
2023/04/18 22:17:03;;;;;;;7.00;5.33;;;10.40;99.90;;;;;;4952201;29;20230;-57
2023/04/18 22:19:31;;;;;;;6.50;5.70;;;10.30;99.90;;;;;;4960099;28;20230;-57
2023/04/18 22:21:59;;;;;;;5.43;4.93;;;10.20;99.90;;;;;;4954372;28;20199;-59
2023/04/18 22:24:27;;;;;;;7.03;5.60;;;10.10;99.90;;;;;;4947705;28;20214;-57
2023/04/18 22:26:54;;;;;;;4.17;3.87;;;10.10;99.90;;;;;;4937927;29;20213;-58
2023/04/18 22:29:21;;;;;;;6.20;5.50;;;10.00;99.90;;;;;;4943028;28;20470;-56
2023/04/18 22:31:48;;;;;;;6.67;4.97;;;10.00;99.90;;;;;;4955194;28;20672;-57
2023/04/18 22:34:15;;;;;;;4.37;4.07;;;10.00;99.90;;;;;;4962371;28;20218;-56
2023/04/18 22:36:44;;;;;;;5.47;4.93;;;9.90;99.90;;;;;;4954561;28;20662;-58
2023/04/18 22:39:12;;;;;;;5.50;4.93;;;9.90;99.90;;;;;;4951918;28;20306;-57
2023/04/18 22:41:39;;;;;;;6.23;5.60;;;9.80;99.90;;;;;;4942408;28;20197;-56
2023/04/18 22:44:06;;;;;;;4.67;4.30;;;9.80;99.90;;;;;;4948148;28;20646;-58
2023/04/18 22:46:33;;;;;;;5.50;5.00;;;9.80;99.90;;;;;;4946338;28;20644;-57
2023/04/18 22:49:00;;;;;;;7.80;5.67;;;9.80;99.90;;;;;;4951140;28;20286;-57
2023/04/18 22:51:27;;;;;;;6.63;6.03;;;9.90;99.90;;;;;;4946847;28;20375;-57
2023/04/18 22:53:55;;;;;;;5.23;4.73;;;10.10;99.90;;;;;;4948844;28;20297;-57
2023/04/18 22:56:23;;;;;;;5.83;5.30;;;10.00;99.90;;;;;;4943849;28;20285;-57
2023/04/18 22:58:50;;;;;;;8.23;6.53;;;9.80;99.90;;;;;;4941553;28;20287;-57
2023/04/18 23:01:18;;;;;;;7.27;6.57;;;9.80;99.90;;;;;;4953885;28;20632;-57
2023/04/18 23:03:45;;;;;;;8.07;7.10;;;9.80;99.90;;;;;;4960016;28;20217;-58
2023/04/18 23:06:13;;;;;;;6.33;5.73;;;9.80;99.90;;;;;;4951713;28;20294;-56
2023/04/18 23:08:40;;;;;;;8.67;6.60;;;9.70;99.90;;;;;;4954349;28;20198;-58
2023/04/18 23:11:09;;;;;;;8.43;7.20;;;9.60;99.90;;;;;;4943607;28;20392;-58
2023/04/18 23:13:38;;;;;;;8.27;6.87;;;9.60;99.90;;;;;;4954593;28;20204;-56
2023/04/18 23:16:06;;;;;;;7.90;7.13;;;9.60;99.90;;;;;;4959408;28;20215;-57
2023/04/18 23:18:33;;;;;;;9.57;8.17;;;9.60;99.90;;;;;;4947071;28;20215;-57
2023/04/18 23:21:01;;;;;;;9.27;6.93;;;9.70;99.90;;;;;;4946560;29;20686;-54
2023/04/18 23:23:28;;;;;;;7.17;6.43;;;9.60;99.90;;;;;;4963075;28;20211;-55
2023/04/18 23:25:55;;;;;;;9.77;6.50;;;9.60;99.90;;;;;;4945523;28;20266;-55
2023/04/18 23:28:25;;;;;;;7.30;6.23;;;9.50;99.90;;;;;;4959393;28;20291;-55
2023/04/18 23:30:54;;;;;;;8.90;7.77;;;9.40;99.90;;;;;;4959860;28;20263;-56
2023/04/18 23:33:21;;;;;;;8.27;7.30;;;9.40;99.90;;;;;;4945776;28;20208;-55
2023/04/18 23:35:48;;;;;;;7.30;6.63;;;9.40;99.90;;;;;;4982188;23;20236;-54
2023/04/18 23:38:15;;;;;;;11.53;6.93;;;9.40;99.90;;;;;;4970229;28;20206;-54
2023/04/18 23:40:42;;;;;;;7.00;6.30;;;9.40;99.90;;;;;;4968959;28;20201;-54
2023/04/18 23:43:09;;;;;;;8.40;7.23;;;9.30;99.90;;;;;;4968352;28;20208;-54
2023/04/18 23:45:36;;;;;;;8.13;5.97;;;9.30;99.90;;;;;;4971635;28;20222;-54